Logs for Mark Borthwick [1027], Hawick, SCT - IO85ok
Paging Controls
Date UTC KHz ID Location S/P ITU Region GSQ LSB USB Sec. Fmt. Power KM Miles
2019-01-27 2154 388.5 CDF Cardiff WLS eu IO81hj 10 451 280
2019-01-27 2148 389 HN Orsta-Volda / Hovden NOR eu JP32ad 901 560
2019-01-27 2145 398 MT St Nazaire / Montoir FRA eu IN87xi 50 900 559
2019-01-27 2144 398 PEO Stockhlom / Skavsta / Peola SWE eu JO88mt 1249 776
2019-01-27 2143 399 FM Trollhattan / Vanersborg SWE eu JO68di 969 602
2019-01-27 2138 398 LRN Lorquin / Xouaxange FRA eu JN38lq 1002 622
2019-01-27 2138 398 LPD Montlucon / Gueret FRA eu JN16eh 1076 669
2019-01-27 2134 393 BD Bordeaux / Merignac FRA eu IN94rw 1178 732
2019-01-27 2133 392 RW Berlin / Tegel West DEU eu JO62nn 50 1085 674
2019-01-27 2133 394 LYE Lubeck / Blanckensee DEU eu JO53it 886 551
2019-01-27 2129 394 NV Nevers / Fourchambault FRA eu JN16ow 1032 641
2019-01-27 2125 395 B Bilbao ESP eu IN83li 1343 835
2019-01-27 2122 395 TBS Tabas IRN as LM83kp 5113 3177
2019-01-27 2121 389 ZRZ Zaragoza ESP eu IN91jr 300 1528 950
2019-01-27 2119 387 ING St. Inglevert FRA eu JO00uv 25 587 365
2019-01-27 2106 388 KRU Kokkola-Pietarsaari / Kruunupyy FIN eu KP13ot 1715 1065
2019-01-27 1957 386 O Kardla EST eu KO18kw 1584 984
2019-01-27 1859 397 OP Dublin IRL eu IO63wj 15 313 194
2019-01-27 1858 399.5 ONO Oostende BEL eu JO11lf 25 603 375
2019-01-27 1856 399 NGY New Galloway for Prestwick SCT eu IO75ve 80 94 58
2019-01-27 1855 398 OK Connaught IRL eu IO53pw 415 258
2019-01-27 1853 396 YG Rygge / Enge NOR eu JO59ji 921 572
2019-01-27 1852 395 LAY Islay SCT eu IO65vq 217 135
2019-01-27 1851 395 FOY Foynes for Shannon IRL eu IO52jn 50 527 327
2019-01-27 1849 393 TAT Molde / Aro / Tautra NOR eu JP32kq 975 606
2019-01-27 1847 394 DND Dundee SCT eu IO86kk 25 113 70
2019-01-27 1845 391 OKR Bratislava / M.R Stefanik / North SVK eu JN88pf 2000 1587 986
2019-01-27 1844 388 COR Corner for Bromma SWE eu JO89rg 1281 796
2019-01-27 1841 388 BDG Bydgoszcz / Szwederowo POL eu JO93ac 1372 852
2019-01-27 1840 387 CML Clonmel IRL eu IO62gk 50 452 281
2019-01-27 1839 385 AVN Vilnius LTU eu KO24pp 1779 1106
2019-01-27 1836 386 BZ Brize Norton ENG eu IO91er 50 419 261
2019-01-27 1835 385 NWT Leczyca POL eu JO91ox 1491 926
2018-12-20 2115 520 OO Shaykovka RUS eu KO74ef 2356 1464
2018-11-24 0400 404 KG Stokmarknes / Kjerringnes NOR eu JP78rp 1735 1078
2018-11-24 0400 406 HON Holzdorf DEU eu JO61ns 25 1123 698
2018-11-24 0400 414 SJA Bardufoss / Senja NOR eu JP89vd 1839 1143
2018-11-24 0300 401 LO Lisbon / Caparica POR eu IM58ku 1903 1182
2018-11-24 0300 419 RA Tyra East A Platform XOE iw JO25fk 457 284
2018-11-24 0130 417 LI Dusseldorf DEU eu JO31ki 25 784 487
2018-11-24 0130 418 ORA Oradea ROU eu KN07xc 1940 1206
2018-11-24 0130 419 RD Vasteras / Hasslo SWE eu JO89hm 1241 771
2018-11-24 0130 419 EMT Epinal / Mirecourt FRA eu JN38ch 1003 623
2018-11-23 2330 401 LA Laval / Entrammes FRA eu IN97px 841 523
2018-11-23 2330 402.5 LBA Leeds / Bradford ENG eu IO93eu 45 191 119
2018-11-23 2330 404 LRD Lerida ESP eu JN01hn 250 1562 971
2018-11-23 2330 407 LUP Laupheim DEU eu JN48wf 30 1180 733
2018-11-23 2330 410 ETN Etain / Rouvres FRA eu JN29uf 10 899 558
2018-11-23 2330 410 C La Coruna ESP eu IN53th 1406 874
2018-11-23 2330 412 SE Strasbourg / Entzheim FRA eu JN38uo 1043 648
2018-11-23 2330 412 GRA Granada ESP eu IM87de 25 2030 1261
2018-11-23 2330 413.5 DLS Berlin / Tempelhof / Lubars DEU eu JO62qo 50 1099 683
2018-11-23 2330 414 HD Sandnessjoen / Stokka / Hestad NOR eu JP66gb 1437 893
2018-11-23 2330 414 BRI Bristol / Filton ENG eu IO81pj 449 279
2018-11-23 2330 415 OL Linkoping / Saab SWE eu JO78vj 1171 727
2018-11-23 2330 416 POZ Beograd / Pozarevac SRB eu KN04no 40 2073 1288
2018-11-23 2330 417 CVT Madrid / Cuatro Vientos ESP eu IN80ci 30 1678 1043
2018-11-23 2330 418 MK Calais / Dunkerque FRA eu JO10ax 591 367
2018-11-23 2230 400 AG Agen / La Garenne FRA eu JN04id 1280 795
2018-11-23 2230 400.5 EJ Esbjerg DNK eu JO45in 724 450
2018-11-23 2230 401 RBU Roros / Rambu NOR eu JP52sm 1133 704
2018-11-23 2230 401 COA La Coruna ESP eu IN53ui 250 1400 870
2018-11-23 2230 402 OP Brussels National BEL eu JO20hw 702 436
2018-11-23 2230 402 LX Eskilstuna / Kjula SWE eu JO89ig 1239 770
2018-11-23 2230 403 OJ Jonkoping SWE eu JO77aq 1058 658
2018-11-23 2230 404 Y Kemi-Tornio / Ketolanpera FIN eu KP25ht 1863 1158
2018-11-23 2230 404 VNG Vangsnes NOR eu JP31hd 838 521
2018-11-23 2230 404 LW Luxembourg LUX eu JN39co 50 888 552
2018-11-23 2230 416 SA Santander ESP eu IN83bk 50 1336 830
2018-11-23 2230 417 AX Auxerre / Branches FRA eu JN17sw 940 584
2018-11-23 2220 403 NM Mora / Slijan SWE eu JP71fa 1180 733
2018-11-23 2220 404 MRV Merville / Calonne FRA eu JO10iq 643 399
2018-11-23 2220 404 CNE Caen / Carpiquet FRA eu IN99uc 25 724 450
2018-11-23 2220 404 AGO Angouleme / Brie Champniers FRA eu JN05fr 1103 685
2018-11-23 2220 405 GRW Grafenwohr DEU eu JN59xq 25 1181 734
2018-11-23 2220 406 BHX Birmingham ENG eu IO92ck 25 340 211
2018-11-23 2220 406.5 BOT Bottrop DEU eu JO31mn 25 779 484
2018-11-23 2220 407 PN Palanga LTU eu KO05nx 1492 927
2018-11-23 2220 408 BRK Wien / Schwechat / Bruck AUT eu JN88ib 1565 972
2018-11-23 2220 409 SG Satenas / Tune SWE eu JO68ij 994 618
2018-11-23 2220 410 SI Salzburg AUT eu JN67lt 1373 853
2018-11-23 2210 400 EN Orebro SWE eu JO79mg 1147 713
2018-11-23 2210 400 BRZ Rijeka / Krk / Breza HRV eu JN75ek 2000 1639 1018
2018-11-23 2210 401 BBA Benbecula SCT eu IO67hl 50 362 225
2018-11-23 0030 400 MSW Munchen DEU eu JN58wi 100 1274 791
2018-11-23 0030 400.5 COD Codogno (LO) ITA eu JN45sf 1429 888
2018-11-23 0030 417 AH Angelholm / Barkakra SWE eu JO66kg 980 609
2018-11-13 0100 265 KAV Pula / Kavran HRV eu JN74av 50 1668 1037
2018-11-13 0100 490 WAK Vakarel BUL eu KN12un 2381 1479
2018-11-13 0030 339 HOS Hamburg DEU eu JO53bq 854 531
2018-11-12 2046 474.5 SA Darlowo POL eu JO84ek 1225 761
2018-11-12 2036 387 RZ Rodez / Marcillac FRA eu JN14fk 1278 794
2018-11-12 2034 386 PTB Pusztaszabolcs HNG eu JN97id 1745 1084
2018-11-12 2028 396 RON Ronchi dei Legionari (GO) ITA eu JN65qt 25 1557 967
2018-11-12 2025 400 MSW Munchen DEU eu JN58wi 100 1274 791
2018-11-12 2023 401 COA La Coruna ESP eu IN53ui 250 1400 870
2018-11-12 2021 404 MRV Merville / Calonne FRA eu JO10iq 643 399
2018-11-12 2019 406 HON Holzdorf DEU eu JO61ns 25 1123 698
2018-11-12 2018 407 LUP Laupheim DEU eu JN48wf 30 1180 733
2018-11-12 2012 415 TOE Toulouse / Blagnac FRA eu JN03ul 15 1368 850
2018-11-12 2006 423 CWL Cranwell ENG eu IO93sa 5 308 192
2018-11-12 1947 468 VTN Kraljevo / Vitanovac SRB eu KN03jr 50 2123 1319
2018-11-06 2121 391 BV Beauvais / Tille FRA eu JN19al 20 738 459
2018-11-05 2058 328 HIG San Sebastian ESP eu IN93cj 200 1341 833
2018-11-05 0300 356 CVU Castres / Mazamet FRA eu JN13cp 1359 844
2018-11-04 0356 335 TON Torralba de Aragon ESP eu IN91rw 300 1510 938
2018-11-04 0300 325 RH Reykholt ISL eu HP94ip 1440 895
2018-11-03 2222 337 EX Exeter ENG eu IO80is 520 323
2018-11-03 2053 320 IL Bodo / Ilstad NOR eu JP77ig 1600 994
2018-11-03 2041 394 LYE Lubeck / Blanckensee DEU eu JO53it 886 551
2018-11-03 0600 377 GA Husavik / Gardur ISL eu IP15gv 1403 872
2018-11-01 0640 276 YHR Chevery QC CAN na GO00el 500 3738 2323
2018-11-01 0300 350 DF Deer Lake NL CAN na GN19ge 1000 3681 2287
2018-11-01 0200 356 AY St Anthony NL CAN na GO11wj 25 3475 2159
2018-10-31 0500 389 BX La Palma CNR af IL18co 150 3214 1997
2018-10-31 0400 403 AIL Ailsa FSO / Total XOE iw JO07xe 352 218
2018-10-31 0400 382 LAR Arruda POR eu IM58lx 1888 1173
2018-10-31 0315 407 BCR Bechar ALG af IM81vq 2641 1641
2018-10-31 0310 274 SAL Sal Island / Amilcar Cabral CPV af HK86mq 3000 4636 2881
2018-10-31 0245 372 OZN Prins Christian Sund / Kitaa GRL na GP80kb 2408 1496
2018-10-31 0220 279 SI Simiutaq (Kitaa) GRL na GP60qq 2591 1610
2018-10-31 0210 332 YFM La Grande 4 QC CAN na FO33dr 2000 4372 2716
2018-10-31 0100 321 STM Scilly Isles / St Mary ENG eu IN69uv 660 410
2018-10-31 0040 305 LT Alert Bay NU CAN na FR82vm 1000 3485 2166
2018-10-31 0010 280 QX Gander NL CAN na GN28px 1000 3523 2189
2018-10-31 0010 281 CA Cartwright NL CAN na GO13lr 1000 3412 2120
2018-10-28 0200 422 UR Hradec Kralove / Upir CZE eu JO70we 50 1378 856
2018-10-27 1200 352 NT Newcastle ENG eu IO95eb 90 85 53
2018-10-27 0300 280 QX Gander NL CAN na GN28px 1000 3523 2189
2018-10-27 0300 350 DF Deer Lake NL CAN na GN19ge 1000 3681 2287
2018-10-27 0300 356 AY St Anthony NL CAN na GO11wj 25 3475 2159
2018-10-27 0300 396 JC Rigolet NL CAN na GO04se 500 3473 2158
2018-10-27 0300 274 SAL Sal Island / Amilcar Cabral CPV af HK86mq 3000 4636 2881
2018-10-27 0300 375 VM Vestmannaeyar ISL eu HP93uj 100 1320 820
2018-10-27 0300 389 CP Lisboa / Caparica POR eu IM58jp 1927 1197
2018-10-27 0300 390 DR Dinard / Pleurtuit-St Malo FRA eu IN88xl 775 482
2018-10-27 0300 284 GNA Gorna BUL eu KN23td 2446 1520
2018-10-27 0300 317 OZ Kardla EST eu KO18kw 1584 984
2018-10-27 0230 372 OZN Prins Christian Sund / Kitaa GRL na GP80kb 2408 1496
2018-10-27 0230 359 LOR Lorient / Lann Bihoue FRA eu IN87gs 100 854 530
2018-10-27 0230 361 CFN Donegal / Carrickfin IRL eu IO55tb 50 356 221
2018-10-27 0230 368 WTD Waterford IRL eu IO62le 456 284
2018-10-27 0230 358 GRK Trondheim / Vaernes / Grakallen NOR eu JP53dk 25 1152 716
2018-10-27 0230 360 ASK Bergen / Flesland / Askoey NOR eu JP20ok 50 728 453
2018-10-27 0230 366 UTH Orland / Uthaug NOR eu JP43sr 1150 714
2018-10-27 0230 365 VS Tampere / Pirkkala / Vesilahti FIN eu KP11rj 1652 1026
2018-10-27 0230 373 KEM Kemi-Tornio / Hirmula FIN eu KP25hu 25 1865 1159
2018-10-27 0225 365 ODD Harstad / Narvik / Evenes / Odden NOR eu JP88bj 1732 1076
2018-10-26 2154 371 BRS Bremsnes for Kristiansund / Kvernberget NOR eu JP33tc 50 1035 643
2018-10-26 2046 416 POZ Beograd / Pozarevac SRB eu KN04no 40 2073 1288
2018-10-26 2044 417 AX Auxerre / Branches FRA eu JN17sw 940 584
2018-10-26 2032 418 ORA Oradea ROU eu KN07xc 1940 1206
2018-10-26 2024 420 HB George Best Belfast City Airport NIR eu IO74bo 217 135
2018-10-26 2024 420 LTR Talisman / Saltire Alpha XOE iw JO08dj 378 235
2018-10-26 2020 420 GO Podgorica MNE eu JN92ph 2159 1342
2018-10-26 2015 421 MF Halmstad SWE eu JO66jp 975 606
2018-10-26 2014 421 GE Madrid / Grinon ESP eu IN80be 1697 1055
2018-10-26 2010 423 FE Odense / Beldringe DNK eu JO55fm 834 518
2018-10-26 2008 424 PHG Phalsbourg / Bourscheid FRA eu JN38os 1006 625
2018-10-26 2006 424 PIS Zagreb / Pleso / Pisarovina HRV eu JN75wo 1704 1059
2018-10-26 2001 428 TGM Targu Mures / Vidrasau ROU eu KN26dk 2126 1321
2018-10-26 2000 431 KBA Karlsruhe / Baden Baden DEU eu JN48bt 1045 650
2018-10-26 1958 428 BST Lanveoc / Poulmic FRA eu IN78sg 25 805 500
2018-10-26 1957 431 SAY Stornoway SCT eu IO68uf 376 234
2018-10-26 1953 433 VON Vigo ESP eu IN52qe 200 1532 952
2018-10-26 1942 444 NRD Inowroclaw POL eu JO92eu 1402 871
2018-10-26 1926 488 NPR Tomaszow-Mazowiecki / Porter POL eu KO01bn 1568 974
2018-10-26 1920 514 GO Amari Air Base EST eu KO29dg 1667 1036
2018-09-16 2300 391 OKR Bratislava / M.R Stefanik / North SVK eu JN88pf 2000 1587 986
2018-09-16 0401 357 LP Cholet / Le Pontreau FRA eu IN97nd 931 579
2018-09-16 0050 419 EMT Epinal / Mirecourt FRA eu JN38ch 1003 623
2018-09-16 0035 463 CL Cerklje SVN eu JN75rv 1658 1030
2018-09-16 0031 445 TU Tuzla BIH eu JN94fl 50 1934 1202
2018-09-16 0003 400.5 EJ Esbjerg DNK eu JO45in 724 450
2018-09-16 0002 400.5 COD Codogno (LO) ITA eu JN45sf 1429 888
2018-09-16 0002 401 RBU Roros / Rambu NOR eu JP52sm 1133 704
2018-09-16 0002 401 LA Laval / Entrammes FRA eu IN97px 841 523
2018-08-26 0400 356 SGO Sagunto ESP eu IM99vq 300 1761 1094
2018-08-26 0400 358 LT Le Touquet / Paris-Plage FRA eu JO00tm 621 386
2018-08-26 0350 369 GL Nantes / Atlantique FRA eu IN97db 50 934 580
2018-08-26 0300 359 RWY Isle Of Man / Ronaldsway IOM eu IO74qb 20 193 120
2018-08-25 0433 350 DF Deer Lake NL CAN na GN19ge 1000 3681 2287
2018-08-25 0405 353 SB St. Brieuc / Armor FRA eu IN88on 764 475
2018-08-25 0401 351 OSA Ouessant FRA eu IN78ll 789 490
2018-08-25 0330 352 LAA Niederrhein DEU eu JO31co 45 731 454
2018-08-25 0318 364 KNK Connaught IRL eu IO53mv 432 268
2018-08-25 0301 365 VR Gran Canaria / Las Palmas CNR af IL27gu 200 3230 2007
2018-08-25 0300 350.5 ROT Rotterdam HOL eu JO21gv 15 623 387
2018-08-25 0300 357 DWI Dortmund / Wickede DEU eu JO31tm 814 506
2018-08-25 0300 368 BYC Buckeburg DEU eu JO42ng 856 532
2018-08-25 0230 352 WOD Woodley ENG eu IO91nk 462 287
2018-08-25 0230 353.5 EME East Midlands ENG eu IO92jt 25 309 192
2018-08-25 0200 356 WBA Wolverhampton ENG eu IO82um 326 202
2018-08-25 0200 368.5 WHI Whitegate for Hawarden ENG eu IO83qe 25 250 156
2018-08-25 0159 365 LJ Koln / Bonn DEU eu JO30mw 25 823 511
2018-08-25 0100 360.5 MAK Mackel for Brussels Ntl BEL eu JO10rx 647 402
2018-08-25 0100 365 ODD Harstad / Narvik / Evenes / Odden NOR eu JP88bj 1732 1076
2018-08-25 0100 367.5 OX Oxford / Kidlington ENG eu IO91it 415 258
2018-08-24 2134 354 MTZ Metz / Nancy-Lorraine FRA eu JN39cg 917 570
2018-08-24 2129 368 WTD Waterford IRL eu IO62le 456 284
2018-08-24 2122 360 ULV Bronnoysund / Ulvingen NOR eu JP65bp 1390 864
2018-08-24 2119 360 ASK Bergen / Flesland / Askoey NOR eu JP20ok 50 728 453
2018-08-24 2117 359 LOR Lorient / Lann Bihoue FRA eu IN87gs 100 854 530
2018-08-24 2112 358 GRK Trondheim / Vaernes / Grakallen NOR eu JP53dk 25 1152 716
2018-08-24 2105 363 OEM Kristianstad / Everod SWE eu JO75bx 1059 658
2018-08-24 2059 368 UW Edinburgh SCT eu IO85fv 69 43
2018-08-24 2057 366 UTH Orland / Uthaug NOR eu JP43sr 1150 714
2018-08-24 2055 361 CFN Donegal / Carrickfin IRL eu IO55tb 50 356 221
2018-08-24 2051 359 BUZ Buzzard / Nexen Platform XOE iw IO97lu 289 180
2018-08-24 2048 355 PIK Prestwick SCT eu IO75rm 111 69
2018-08-24 2045 352 NT Newcastle ENG eu IO95eb 90 85 53
2018-08-24 2043 351 OV Visby SWE eu JO97er 1315 817
2018-03-03 0400 378 OS Sundsvall / Harnosand SWE eu JP82rl 1391 864
2018-03-03 0030 358 TUN Tulln for Schwechat AUT eu JN78xh 1504 935
2018-03-01 1726 400 AG Agen / La Garenne FRA eu JN04id 1280 795
2018-03-01 1719 436 S Darlowo POL eu JO84ej 1227 762
2018-02-26 0957 405 HMI Sevan Hummingbird FPSO XOE iw JO07ox 373 232
2018-02-26 0300 281 CA Cartwright NL CAN na GO13lr 1000 3412 2120
2018-02-26 0300 299.5 KN Svolvaer / Helle / Skrova NOR eu JP78hd 1670 1038
2018-02-26 0300 306.5 AV Avord FRA eu JN16lv 1030 640
2018-02-26 0300 315 HOL Villacoublay / Velizy FRA eu JN08vr 25 808 502
2018-02-25 0245 280 QX Gander NL CAN na GN28px 1000 3523 2189
2018-02-25 0130 309 MW Berlin / Schonefeld DEU eu JO62qi 1110 690
2018-02-25 0130 314 OZ Brussels National BEL eu JO20ft 705 438
2018-02-25 0130 315.5 SS Scatsta SHE eu IP90jl 568 353
2018-02-25 0100 277 CHT Chiltern ENG eu IO91ro 25 451 280
2018-02-25 0100 293 OB Brussels National BEL eu JO20hw 702 436
2018-02-25 0030 274 SAL Sal Island / Amilcar Cabral CPV af HK86mq 3000 4636 2881
2018-02-25 0030 290 GRZ Graz AUT eu JN76rw 80 1577 980
2018-02-25 0010 275 O UNID XUF xx
2018-02-24 2330 290 ONL Liege / Bierset BEL eu JO20sq 15 766 476
2018-02-24 2324 318 LE Luxembourg-Est LUX eu JN39dp 888 552
2018-02-24 2316 318 LP Ronneby / Kallinge SWE eu JO76pi 1129 701
2018-02-24 2316 319 VAR Stavanger / Sola / Varhaug NOR eu JO28tp 25 621 386
2018-02-24 2314 317 OZ Kardla EST eu KO18kw 1584 984
2018-02-24 2313 316 OE Dublin IRL eu IO63sk 325 202
2018-02-24 2311 311 LMA Lima / Bruggen DEU eu JO31ei 25 758 471
2018-02-24 2309 309 LG Satenas / Tune SWE eu JO68ik 995 618
2018-02-24 2248 284 FSB Fassberg DEU eu JO52cv 25 891 553
2018-02-24 2242 300 SC Linkoping / Malmen And Saab SWE eu JO78sk 1157 719
2018-02-24 2241 303 KPG Sogndal / Haukasen / Kaupanger NOR eu JP31oe 864 537
2018-02-24 2240 307 DIK Diekirch LUX eu JN39bu 863 536
2018-02-24 2239 310 DBV Dubove SVK eu JN98ju 2000 1635 1016
2018-02-21 2136 351 ISI Iasi ROU eu KN37sf 2273 1412
2018-02-18 1924 525 PL Pulkovo / St.Petersburg RUS eu KO59es 2011 1249
2018-02-13 0500 392 ML Charlevoix QC CAN na FN47uo 500 4561 2834
2018-02-13 0406 390 JT Stephenville NL CAN na GN08on 450 3800 2361
2018-02-13 0405 392.5 TOP Torino / Poirino (TO) ITA eu JN34ww 1389 863
2018-02-13 0400 340 YY Mont Joli QC CAN na FN58un 500 4378 2720
2018-02-13 0400 360 PN Port-Menier / Ile Anticosti QC CAN na FN79tu 500 4062 2524
2018-02-13 0400 378 HO Hopedale NL CAN na FO95vk 3517 2185
2018-02-13 0400 380 FLR Trondheim / Vaernes / Flornes NOR eu JP53ql 50 1195 742
2018-02-13 0400 396 JC Rigolet NL CAN na GO04se 500 3473 2158
2018-02-13 0300 279 SI Simiutaq (Kitaa) GRL na GP60qq 2591 1610
2018-02-13 0300 280 QX Gander NL CAN na GN28px 1000 3523 2189
2018-02-13 0300 293 OB Brussels National BEL eu JO20hw 702 436
2018-02-13 0300 299.5 KN Svolvaer / Helle / Skrova NOR eu JP78hd 1670 1038
2018-02-13 0300 303 KPG Sogndal / Haukasen / Kaupanger NOR eu JP31oe 864 537
2018-02-13 0300 327 POR Porto POR eu IN51pi 1624 1009
2018-02-13 0300 327 MVC Merville / Calonne FRA eu JO10hn 652 405
2018-02-13 0300 329 VX Vaxjo / Kronoberg SWE eu JO76iu 1092 679
2018-02-13 0300 329 NMS Namsos NOR eu JP54vl 1286 799
2018-02-13 0300 332 YFM La Grande 4 QC CAN na FO33dr 2000 4372 2716
2018-02-13 0300 332 OY Belfast / Aldergrove NIR eu IO64wq 228 142
2018-02-13 0300 332.5 CAM Cambridge ENG eu JO02cf 407 253
2018-02-13 0300 337 WTN Warton ENG eu IO83ns 185 115
2018-02-13 0300 337 MY Myggenaes FRO eu IP62ec 791 492
2018-02-13 0300 340 GJ Gjogur ISL eu HP95ix 1533 952
2018-02-13 0300 343 KUS Kaunas / Karmelava LTU eu KO24bx 100 1698 1055
2018-02-13 0300 348 SAD Leknes / Sandsund NOR eu JP68tc 1640 1019
2018-02-13 0300 353 OBA Oseberg A platform XOE iw JP10jl 650 404
2018-02-13 0300 458 LP Chernyakhovsk KAL eu KO04vo 1562 970
2018-02-13 0300 514.5 LA Namest Nad Oslavou CZE eu JN89cd 1463 909
2018-02-13 0100 307 DIK Diekirch LUX eu JN39bu 863 536
2018-02-13 0032 277 CHT Chiltern ENG eu IO91ro 25 451 280
2018-02-13 0030 263 QY Sydney NS CAN na GN06af 500 4020 2498
2018-02-13 0030 290 ONL Liege / Bierset BEL eu JO20sq 15 766 476
2018-02-12 0300 420 INN Innsbruck AUT eu JN57qf 40 1337 831
2018-02-12 0221 316 BJO Bjornoya / Bear Isl BRI eu JQ94nm 50 2325 1445
2018-02-12 0221 414 SJA Bardufoss / Senja NOR eu JP89vd 1839 1143
2018-02-12 0220 415 OL Linkoping / Saab SWE eu JO78vj 1171 727
2018-02-12 0220 418 ORA Oradea ROU eu KN07xc 1940 1206
2018-02-12 0220 422 OSJ Osijek HRV eu JN95lk 100 1887 1172
2018-02-12 0220 438 KO Rijeka / Krk / Kozala HRV eu JN75fi 1650 1025
2018-02-12 0220 484 HOF Hof DEU eu JO50vg 25 1132 703
2018-02-12 0220 485 IA Indija SRB eu KN05ab 60 1977 1228
2018-02-12 0202 485 CW Krasnaya Gorbatka RUS eu LO05uu 2744 1705
2018-02-12 0201 478 MF Larionovo RUS eu KO96ta 2615 1625
2018-02-12 0200 315 PAH Parchim DEU eu JO53tj 958 595
2018-02-06 0034 280 QX Gander NL CAN na GN28px 1000 3523 2189
2018-02-05 0259 274 SAL Sal Island / Amilcar Cabral CPV af HK86mq 3000 4636 2881
2018-02-05 0213 360 PN Port-Menier / Ile Anticosti QC CAN na FN79tu 500 4062 2524
2018-02-05 0201 348 TPL Topola SRB eu KN04id 2086 1296
2018-02-05 0201 351.5 PLA Pula HRV eu JN64vv 2000 1656 1029
2018-02-05 0200 333.5 VOG Voghera (PV) ITA eu JN44lx 1428 887
2018-02-05 0103 420 SPP Sevilla / San Pablo ESP eu IM77ck 100 2014 1251
2018-02-05 0101 263 QY Sydney NS CAN na GN06af 500 4020 2498
2018-02-05 0101 350 DF Deer Lake NL CAN na GN19ge 1000 3681 2287
2018-02-05 0100 352.5 DD Oostende BEL eu JO11ke 100 604 375
2018-02-05 0100 356 AY St Anthony NL CAN na GO11wj 25 3475 2159
2018-02-05 0100 375 RB Orebro SWE eu JO79md 1144 711
2018-02-05 0100 376 HIE Valverde / El Hierro CNR af IL17bt 3301 2051
2018-02-05 0030 281 CA Cartwright NL CAN na GO13lr 1000 3412 2120
2018-02-05 0030 332 FAR Faro POR eu IM67aa 2084 1295
2018-02-05 0030 341 GP Lajes / Vila Da Praia Da Vitoria / Terceira Island AZR eu HM68ks 2586 1607
2018-02-05 0030 346 LHO Le Havre / Octeville FRA eu JN09co 679 422
2018-02-05 0030 396 JC Rigolet NL CAN na GO04se 500 3473 2158
2018-02-05 0030 425 EVR Evora POR eu IM68bm 50 1918 1192
2018-02-05 0030 517 ARD Arad ROU eu KN06ne 1955 1215
2018-02-03 1225 328.5 EGT Londonderry / Eglinton NIR eu IO65kb 278 173
2018-02-03 1221 360 ASK Bergen / Flesland / Askoey NOR eu JP20ok 50 728 453
2018-02-03 1203 334 GMN Gormanston IRL eu IO63vp 297 185
2018-02-03 1200 328 CL Carlisle ENG eu IO84ow 56 35
2018-02-03 1200 341 EDN Edinburgh SCT eu IO85ix 68 42
2018-02-03 1200 368 UW Edinburgh SCT eu IO85fv 69 43
2018-02-03 1200 352 NT Newcastle ENG eu IO95eb 90 85 53
2018-02-03 1200 399 NGY New Galloway for Prestwick SCT eu IO75ve 80 94 58
2018-02-03 1200 355 PIK Prestwick SCT eu IO75rm 111 69
2018-02-03 1200 331 GLW Glasgow SCT eu IO75su 114 71
2018-02-03 1200 394 DND Dundee SCT eu IO86kk 25 113 70
2018-02-03 1200 347.5 TD Teeside ENG eu IO94in 136 85
2018-02-03 1200 380 CBL Campbeltown SCT eu IO75dk 184 114
2018-02-03 1200 348 ATF Aberdeen / Dyce SCT eu IO87wb 25 185 115
2018-02-03 1200 359 RWY Isle Of Man / Ronaldsway IOM eu IO74qb 20 193 120
2018-02-03 1200 402.5 LBA Leeds / Bradford ENG eu IO93eu 45 191 119
2018-02-03 1200 420 HB George Best Belfast City Airport NIR eu IO74bo 217 135
2018-02-03 1200 340 HAW Hawarden WLS eu IO83me 250 156
2018-02-03 1200 397 OP Dublin IRL eu IO63wj 15 313 194
2018-02-03 1200 378 KLY Killiney for Dublin IRL eu IO63wg 323 201
2018-02-03 1200 380 ULA Ula / BP Platform XOE iw JO17kc 50 396 246
2018-02-03 1200 342.5 NWI Norwich ENG eu JO02pq 5 405 252
2018-02-03 1200 319 VAR Stavanger / Sola / Varhaug NOR eu JO28tp 25 621 386
2018-02-03 1200 378 RSY Stavanger / Sola / Rennesoy NOR eu JO29td 652 405
2018-01-29 0303 489 NK Poznan / Krzesiny / Kamera POL eu JO82lh 1335 830
2018-01-29 0302 488 NPR Tomaszow-Mazowiecki / Porter POL eu KO01bn 1568 974
2018-01-29 0156 479 SA6RR SWE eu JO67ki 985 612
2018-01-27 2316 534 FED Floatel Endurance / ZCEK4 XOE iw JO08un 441 274
2018-01-27 0207 468 FTZ Fritzlar DEU eu JO41pc 25 935 581
2018-01-27 0207 474 BIA Rzeszow / Jasionka POL eu KO10bc 1766 1098
2018-01-27 0200 452 ANS Ansbach DEU eu JN59hh 1134 705
2018-01-27 0200 514 GO Amari Air Base EST eu KO29dg 1667 1036
2018-01-27 0001 444 NRD Inowroclaw POL eu JO92eu 1402 871
2018-01-27 0001 488 ILM Illesheim DEU eu JN59el 1108 689
2018-01-27 0001 492 TBV Moravska / Trebova CZE eu JN89it 1451 901
2018-01-25 0500 395 FOY Foynes for Shannon IRL eu IO52jn 50 527 327
2018-01-25 0200 412 SE Strasbourg / Entzheim FRA eu JN38uo 1043 648
2018-01-25 0200 417 SNO Santiago ESP eu IN52sv 200 1453 903
2018-01-25 0200 424 PHG Phalsbourg / Bourscheid FRA eu JN38os 1006 625
2018-01-25 0159 425 ERT Erfurt DEU eu JO50kx 1034 642
2018-01-25 0057 281 CA Cartwright NL CAN na GO13lr 1000 3412 2120
2018-01-24 2214 277 PO Pulkovo RUS eu KO59et 2011 1249
2018-01-24 2148 406 TW Toulouse / Blagnac FRA eu JN03mm 15 1353 841
2018-01-24 2145 407 PN Palanga LTU eu KO05nx 1492 927
2018-01-24 2140 374.5 ANC Ancona (AN) ITA eu JN63ro 35 1754 1090
2018-01-24 2136 376 HAN Hahn DEU eu JN39px 25 909 565
2018-01-24 2057 349.5 LPL Liverpool ENG eu IO83pi 232 144
2018-01-24 2055 353.5 EME East Midlands ENG eu IO92jt 25 309 192
2018-01-24 2052 398 ESS Kokkola-Pietarsaari /Kruunupyy / Esse FIN eu KP13np 1704 1059
2018-01-23 2002 534 FED Floatel Endurance / ZCEK4 XOE iw JO08un 441 274
2018-01-23 1957 478 MF Larionovo RUS eu KO96ta 2615 1625
2018-01-23 0301 356 AY St Anthony NL CAN na GO11wj 25 3475 2159
2018-01-23 0259 350 DF Deer Lake NL CAN na GN19ge 1000 3681 2287
2018-01-23 0259 354 PAD Paderborn / Lippstadt DEU eu JO41ho 25 865 538
2018-01-23 0259 372 OZN Prins Christian Sund / Kitaa GRL na GP80kb 2408 1496
2018-01-23 0203 345.5 CF Caslav / Chotusice / Centograf CZE eu JN79rv 1371 852
2018-01-23 0101 346 WLU Luxembourg LUX eu JN39an 15 884 549
2018-01-23 0100 428 TGM Targu Mures / Vidrasau ROU eu KN26dk 2126 1321
2018-01-23 0059 423 ZO Nis / Zitoradja SRB eu KN03ue 2218 1378
2018-01-23 0059 424 PIS Zagreb / Pleso / Pisarovina HRV eu JN75wo 1704 1059
2018-01-23 0059 429 LOS Losinj HRV eu JN74fm 40 1721 1070
2018-01-23 0059 430 SN St Yan FRA eu JN26bh 1123 698
2018-01-23 0059 433 JER Jerez ESP eu IM66xu 50 2080 1293
2018-01-23 0058 396 JC Rigolet NL CAN na GO04se 500 3473 2158
2018-01-19 0310 383 ALD Alderney GSY eu IN89vr 50 636 395
2018-01-19 0308 368.5 ELU Luxembourg-Berg LUX eu JN39eq 15 889 552
2018-01-19 0306 367 VAT Chalon / Vatry FRA eu JN28at 871 541
2018-01-19 0302 406 BHX Birmingham ENG eu IO92ck 25 340 211
2018-01-19 0301 342 VA Vannes / Meucon FRA eu IN87qs 852 530
2018-01-19 0301 372 NOR Nordholz DEU eu JO43js 30 768 477
2018-01-19 0206 489 NK Poznan / Krzesiny / Kamera POL eu JO82lh 1335 830
2018-01-19 0101 398 LRN Lorquin / Xouaxange FRA eu JN38lq 1002 622
2018-01-18 0434 345 BN Kristiansand / Kjevik / Birkeland NOR eu JO48ch 740 460
2018-01-18 0402 350 FU Hamburg West DEU eu JO43xo 25 846 526
2018-01-18 0400 348 SAD Leknes / Sandsund NOR eu JP68tc 1640 1019
2018-01-18 0359 345 STM Strommen / Mo I Rana NOR eu JP66vg 1492 927
2018-01-18 0358 299.5 KN Svolvaer / Helle / Skrova NOR eu JP78hd 1670 1038
2018-01-18 0300 333 G Kemi-Tornio / Marttala FIN eu KP25gs 1858 1154
2018-01-18 0125 398 LPD Montlucon / Gueret FRA eu JN16eh 1076 669
2018-01-18 0124 392 KF Keflavik ISL eu HP83px 1455 904
2018-01-18 0115 407 BCR Bechar ALG af IM81vq 2641 1641
2018-01-18 0100 372 OZN Prins Christian Sund / Kitaa GRL na GP80kb 2408 1496
2018-01-18 0100 376 BJA Beja POR eu IM68ad 1961 1218
2018-01-18 0100 388 KRU Kokkola-Pietarsaari / Kruunupyy FIN eu KP13ot 1715 1065
2018-01-18 0100 389 CP Lisboa / Caparica POR eu IM58jp 1927 1197
2018-01-18 0059 350 DF Deer Lake NL CAN na GN19ge 1000 3681 2287
2018-01-18 0059 356 AY St Anthony NL CAN na GO11wj 25 3475 2159
2018-01-18 0059 360 HT Horta / Faial Island AZR eu HM58qm 2687 1669
2018-01-18 0059 361 NB Bordeaux / Merignac FRA eu IN95rd 25 1155 718
2018-01-18 0059 365 ODD Harstad / Narvik / Evenes / Odden NOR eu JP88bj 1732 1076
2018-01-18 0059 369 GL Nantes / Atlantique FRA eu IN97db 50 934 580
2018-01-18 0059 371 STR Sintra POR eu IM58hv 1903 1182
2018-01-18 0059 380 FIL Horta / Faial Island AZR eu HM58pm 2691 1672
2018-01-18 0059 387 BGP Brest Guipavas FRA eu IN78tk 786 488
2018-01-18 0059 387 AV Asturias / Aviles ESP eu IN73am 20 1344 835
2018-01-18 0059 428 CTX Chateauroux / Deols FRA eu JN06vw 50 997 619
2018-01-18 0055 326 LM Le Mans / Arnage FRA eu JN07cv 50 863 536
2018-01-18 0054 332 FAR Faro POR eu IM67aa 2084 1295
2018-01-18 0054 338 PST Porto Santo / Ilheu De Baixo MDR af IM13tb 2000 2701 1678
2018-01-18 0053 329 JW Jersey JSY eu IN89ve 696 432
2018-01-18 0050 327 POR Porto POR eu IN51pi 1624 1009
2018-01-16 0400 359 BUZ Buzzard / Nexen Platform XOE iw IO97lu 289 180
2018-01-16 0305 390.5 ITR Istres / Le Tube FRA eu JN23lm 1436 892
2018-01-16 0305 399 EAG Logrono / Agoncillo ESP eu IN82uk 25 1446 898
2018-01-16 0304 388.5 CDF Cardiff WLS eu IO81hj 10 451 280
2018-01-16 0302 385 AVN Vilnius LTU eu KO24pp 1779 1106
2018-01-16 0302 388 BDG Bydgoszcz / Szwederowo POL eu JO93ac 1372 852
2018-01-16 0302 410 ETN Etain / Rouvres FRA eu JN29uf 10 899 558
2018-01-16 0301 383.5 GUL Gulpen HOL eu JO20wt 15 773 480
2018-01-16 0301 386 BZ Brize Norton ENG eu IO91er 50 419 261
2018-01-16 0301 408 BRK Wien / Schwechat / Bruck AUT eu JN88ib 1565 972
2018-01-16 0300 396 YG Rygge / Enge NOR eu JO59ji 921 572
2018-01-16 0201 399.5 ONO Oostende BEL eu JO11lf 25 603 375
2018-01-16 0200 290 ONL Liege / Bierset BEL eu JO20sq 15 766 476
2018-01-16 0200 400 EN Orebro SWE eu JO79mg 1147 713
2018-01-16 0200 438 PE Poprad / Tatry East SVK eu KN09fb 1723 1071
2018-01-16 0159 419 RA Tyra East A Platform XOE iw JO25fk 457 284
2018-01-16 0159 521 BSW Bucuresti / Baneasa ROU eu KN24xl 2365 1470
2018-01-16 0122 352 LAA Niederrhein DEU eu JO31co 45 731 454
2018-01-16 0120 340 BLK Banja Luka BIH eu JN85pc 40 1821 1131
2018-01-16 0119 366 KM Kalmar SWE eu JO86cr 1184 735
2018-01-16 0101 310 DBV Dubove SVK eu JN98ju 2000 1635 1016
2018-01-16 0101 404 CNE Caen / Carpiquet FRA eu IN99uc 25 724 450
2018-01-16 0101 424 PIS Zagreb / Pleso / Pisarovina HRV eu JN75wo 1704 1059
2018-01-16 0101 428 BST Lanveoc / Poulmic FRA eu IN78sg 25 805 500
2018-01-16 0100 339 OL Shannon IRL eu IO52or 493 307
2018-01-16 0100 404 LW Luxembourg LUX eu JN39co 50 888 552
2018-01-16 0100 404 LRD Lerida ESP eu JN01hn 250 1562 971
2018-01-16 0058 520 NW Leczyca POL eu JO91ox 1491 926
2018-01-16 0032 333 G Kemi-Tornio / Marttala FIN eu KP25gs 1858 1154
2018-01-16 0014 375 CHO Chociwel POL eu JO73pl 1185 737
2018-01-16 0011 280 QX Gander NL CAN na GN28px 1000 3523 2189
2018-01-16 0002 371 MYN Munster / Osnabruck DEU eu JO32vd 25 784 487
2018-01-16 0001 374 BL Forde / Bringeland NOR eu JP21vj 828 515
2018-01-16 0001 426 GBG Gleichenberg for Graz AUT eu JN76vv 100 1598 993
2018-01-15 2207 357 SKZ Leipzig / Halle DEU eu JO61dj 1093 679
2018-01-15 2158 414 BRI Bristol / Filton ENG eu IO81pj 449 279
2018-01-15 2155 418 MK Calais / Dunkerque FRA eu JO10ax 591 367
2018-01-15 2148 426 SH Shobdon ENG eu IO82nf 357 222
2018-01-15 2146 433.5 HEN Henton ENG eu IO91os 25 428 266
2018-01-15 2017 433 CRE Cres HRV eu JN74fv 40 1689 1050
2018-01-15 1915 437 EDV Edvard Grieg Platform (Lundin) XOE iw JO18dt 484 301
2018-01-15 1746 489 OI Donskoye KAL eu JO94xw 1439 894
2018-01-15 1739 494 NOW Oksywie POL eu JO94gn 1359 844
2018-01-15 0429 432 PK Pardubice / Prvek CZE eu JO70va 1383 859
2018-01-15 0401 293 OB Brussels National BEL eu JO20hw 702 436
2018-01-15 0400 277 CHT Chiltern ENG eu IO91ro 25 451 280
2018-01-15 0301 448 HLV Holesov CZE eu JN89sh 1531 952
2018-01-15 0226 488 NPR Tomaszow-Mazowiecki / Porter POL eu KO01bn 1568 974
2018-01-15 0158 315 HOL Villacoublay / Velizy FRA eu JN08vr 25 808 502
2018-01-15 0037 324 ON Norrkoping SWE eu JO88eo 1208 750
2018-01-15 0037 324 HE Notodden / Heddal NOR eu JO49mo 843 524
2018-01-15 0033 314 OZ Brussels National BEL eu JO20ft 705 438
2018-01-15 0032 307 DIK Diekirch LUX eu JN39bu 863 536
2018-01-15 0029 303 KPG Sogndal / Haukasen / Kaupanger NOR eu JP31oe 864 537
2018-01-15 0028 299.5 KN Svolvaer / Helle / Skrova NOR eu JP78hd 1670 1038
2018-01-15 0026 284 FSB Fassberg DEU eu JO52cv 25 891 553
2018-01-15 0023 263 QY Sydney NS CAN na GN06af 500 4020 2498
2018-01-15 0018 426 MIQ Mike for Ingolstadt DEU eu JN58tn 1244 773
2018-01-15 0014 356 AY St Anthony NL CAN na GO11wj 25 3475 2159
2018-01-15 0004 492 TBV Moravska / Trebova CZE eu JN89it 1451 901
2018-01-12 0526 401 BBA Benbecula SCT eu IO67hl 50 362 225
2018-01-12 0522 384 PMR Pamiers / Les Pujols FRA eu JN03tc 1407 874
2018-01-12 0406 488 ILM Illesheim DEU eu JN59el 1108 689
2018-01-12 0401 474 BIA Rzeszow / Jasionka POL eu KO10bc 1766 1098
2018-01-12 0400 468 FTZ Fritzlar DEU eu JO41pc 25 935 581
2018-01-12 0351 434 MV Melun / Villaroche FRA eu JN18ln 859 534
2018-01-12 0336 433 VON Vigo ESP eu IN52qe 200 1532 952
2018-01-12 0335 414 HD Sandnessjoen / Stokka / Hestad NOR eu JP66gb 1437 893
2018-01-12 0334 413.5 DLS Berlin / Tempelhof / Lubars DEU eu JO62qo 50 1099 683
2018-01-12 0332 352 NT Newcastle ENG eu IO95eb 90 85 53
2018-01-12 0329 337 MY Myggenaes FRO eu IP62ec 791 492
2018-01-12 0325 514 GO Amari Air Base EST eu KO29dg 1667 1036
2018-01-12 0317 452 ANS Ansbach DEU eu JN59hh 1134 705
2018-01-12 0311 319 VAR Stavanger / Sola / Varhaug NOR eu JO28tp 25 621 386
2018-01-12 0310 318 HIG Bremen DEU eu JO43kb 25 801 498
2018-01-12 0309 309 DO Dole / Tavaux FRA eu JN26px 1094 680
2018-01-12 0309 317 OZ Kardla EST eu KO18kw 1584 984
2018-01-12 0308 311 LMA Lima / Bruggen DEU eu JO31ei 25 758 471
2018-01-12 0307 316 OE Dublin IRL eu IO63sk 325 202
2018-01-12 0307 316 BRR Barra SCT eu IO67ga 338 210
2018-01-12 0305 384 SLG Sligo IRL eu IO54qg 395 246
2018-01-12 0304 372 ODR Kristiansand / Kjevik / Odderoy NOR eu JO38xd 720 447
2018-01-12 0304 381 RG Rygge / Tune NOR eu JO59mh 932 579
2018-01-12 0303 368 BYC Buckeburg DEU eu JO42ng 856 532
2018-01-12 0303 373 KEM Kemi-Tornio / Hirmula FIN eu KP25hu 25 1865 1159
2018-01-12 0303 372 OZN Prins Christian Sund / Kitaa GRL na GP80kb 2408 1496
2018-01-12 0302 368 UW Edinburgh SCT eu IO85fv 69 43
2018-01-12 0302 376 HP Esbjerg DNK eu JO45em 703 437
2018-01-12 0302 375 VM Vestmannaeyar ISL eu HP93uj 100 1320 820
2018-01-12 0302 421 GE Madrid / Grinon ESP eu IN80be 1697 1055
2018-01-12 0301 387 CML Clonmel IRL eu IO62gk 50 452 281
2018-01-12 0301 353 OBA Oseberg A platform XOE iw JP10jl 650 404
2018-01-12 0301 360 ASK Bergen / Flesland / Askoey NOR eu JP20ok 50 728 453
2018-01-12 0301 357 DWI Dortmund / Wickede DEU eu JO31tm 814 506
2018-01-12 0301 365 LJ Koln / Bonn DEU eu JO30mw 25 823 511
2018-01-12 0301 423 FE Odense / Beldringe DNK eu JO55fm 834 518
2018-01-12 0301 419 WUN Wunstorf DEU eu JO42rl 25 865 537
2018-01-12 0301 389 HN Orsta-Volda / Hovden NOR eu JP32ad 901 560
2018-01-12 0301 421 MF Halmstad SWE eu JO66jp 975 606
2018-01-12 0301 371 BRS Bremsnes for Kristiansund / Kvernberget NOR eu JP33tc 50 1035 643
2018-01-12 0301 375 KD Kristanstad / Everod SWE eu JO75av 1054 655
2018-01-12 0301 366 UTH Orland / Uthaug NOR eu JP43sr 1150 714
2018-01-12 0301 388 COR Corner for Bromma SWE eu JO89rg 1281 796
2018-01-12 0301 360 ULV Bronnoysund / Ulvingen NOR eu JP65bp 1390 864
2018-01-12 0301 422 PAM Pamplona ESP eu IN92er 100 1415 879
2018-01-12 0301 346 MI Mikkeli / Korpikoski FIN eu KP31mr 1845 1146
2018-01-12 0300 355 PIK Prestwick SCT eu IO75rm 111 69
2018-01-12 0300 420 HB George Best Belfast City Airport NIR eu IO74bo 217 135
2018-01-12 0300 378 KLY Killiney for Dublin IRL eu IO63wg 323 201
2018-01-12 0300 361 CFN Donegal / Carrickfin IRL eu IO55tb 50 356 221
2018-01-12 0300 367.5 OX Oxford / Kidlington ENG eu IO91it 415 258
2018-01-12 0300 368 WTD Waterford IRL eu IO62le 456 284
2018-01-12 0300 350.5 ROT Rotterdam HOL eu JO21gv 15 623 387
2018-01-12 0300 360.5 MAK Mackel for Brussels Ntl BEL eu JO10rx 647 402
2018-01-12 0300 390 DR Dinard / Pleurtuit-St Malo FRA eu IN88xl 775 482
2018-01-12 0300 353 KIL Kiel / Holtenau DEU eu JO54bi 25 833 518
2018-01-12 0300 359 LOR Lorient / Lann Bihoue FRA eu IN87gs 100 854 530
2018-01-12 0300 354 MTZ Metz / Nancy-Lorraine FRA eu JN39cg 917 570
2018-01-12 0300 370.5 LB Angelholm / Barkakra SWE eu JO66ji 975 606
2018-01-12 0300 358 BRS Biscarosse / Parentis FRA eu IN94ki 1238 769
2018-01-12 0300 419 RD Vasteras / Hasslo SWE eu JO89hm 1241 771
2018-01-12 0300 355 RK Reykjavik ISL eu HP84xd 1438 893
2018-01-12 0300 386 O Kardla EST eu KO18kw 1584 984
2018-01-12 0300 365 VS Tampere / Pirkkala / Vesilahti FIN eu KP11rj 1652 1026
2018-01-12 0300 388 KRU Kokkola-Pietarsaari / Kruunupyy FIN eu KP13ot 1715 1065
2018-01-12 0300 392 RAN Lappeenranta / Ranta FIN eu KP41aa 1888 1173
2018-01-12 0300 517 ARD Arad ROU eu KN06ne 1955 1215
2018-01-12 0259 404 VNG Vangsnes NOR eu JP31hd 838 521
2018-01-12 0259 416 POZ Beograd / Pozarevac SRB eu KN04no 40 2073 1288
2018-01-12 0258 374 FLV Bodo / Fleinvaer NOR eu JP67vd 1564 971
2018-01-12 0257 417 LI Dusseldorf DEU eu JO31ki 25 784 487
2018-01-12 0257 417 AH Angelholm / Barkakra SWE eu JO66kg 980 609
2018-01-12 0257 349 TAR Orland / Tarva NOR eu JP43rt 1154 717
2018-01-12 0257 356 AY St Anthony NL CAN na GO11wj 25 3475 2159
2018-01-12 0242 380 CBL Campbeltown SCT eu IO75dk 184 114
2018-01-12 0241 378 RSY Stavanger / Sola / Rennesoy NOR eu JO29td 652 405
2018-01-12 0241 380 FIL Horta / Faial Island AZR eu HM58pm 2691 1672
2018-01-12 0240 403 OJ Jonkoping SWE eu JO77aq 1058 658
2018-01-12 0240 427 RY Royan / Medis FRA eu IN95no 1101 684
2018-01-12 0239 334 GMN Gormanston IRL eu IO63vp 297 185
2018-01-12 0238 333 GFC Statoil Gullfaks C Platform XOE iw JP11df 50 708 440
2018-01-12 0237 331 GLW Glasgow SCT eu IO75su 114 71
2018-01-12 0237 327 POR Porto POR eu IN51pi 1624 1009
2018-01-12 0227 339 BIA Bournemouth ENG eu IO90bs 40 522 325
2018-01-12 0226 444 NRD Inowroclaw POL eu JO92eu 1402 871
2018-01-12 0219 342 LL Leirin / Fagernes NOR eu JP41pa 939 583
2018-01-12 0217 341 EDN Edinburgh SCT eu IO85ix 68 42
2018-01-12 0215 335 WCO Westcott ENG eu IO91mu 416 259
2018-01-12 0214 338 OA Jonkoping SWE eu JO77bt 1065 662
2018-01-12 0213 410 C La Coruna ESP eu IN53th 1406 874
2018-01-12 0204 399 NGY New Galloway for Prestwick SCT eu IO75ve 80 94 58
2018-01-12 0204 340 HAW Hawarden WLS eu IO83me 250 156
2018-01-12 0203 328 CL Carlisle ENG eu IO84ow 56 35
2018-01-12 0203 398 MT St Nazaire / Montoir FRA eu IN87xi 50 900 559
2018-01-12 0203 327 LNZ Linz / Horsching AUT eu JN78df 1415 879
2018-01-12 0201 348 ATF Aberdeen / Dyce SCT eu IO87wb 25 185 115
2018-01-12 0201 397 OP Dublin IRL eu IO63wj 15 313 194
2018-01-12 0201 363.5 CT Coventry ENG eu IO92hk 346 215
2018-01-12 0201 395 KW Kirkwall / Orkney Isl. ORK eu IO88nx 394 245
2018-01-12 0201 351 DSA Dieppe / St Aubin FRA eu JN09mv 668 415
2018-01-12 0201 321 ABY Albert / Bray FRA eu JN19jx 713 443
2018-01-12 0201 398 GL Aalborg DNK eu JO47uc 793 492
2018-01-12 0201 344 HN Hohn DEU eu JO44uh 25 808 502
2018-01-12 0201 338 PST Porto Santo / Ilheu De Baixo MDR af IM13tb 2000 2701 1678
2018-01-12 0200 347.5 TD Teeside ENG eu IO94in 136 85
2018-01-12 0200 344 WCK Wick SCT eu IO88lk 25 334 207
2018-01-12 0200 431 SAY Stornoway SCT eu IO68uf 376 234
2018-01-12 0200 398 OK Connaught IRL eu IO53pw 415 258
2018-01-12 0200 364 KNK Connaught IRL eu IO53mv 432 268
2018-01-12 0200 325 PG Trollhattan / Vanersborg SWE eu JO68fg 977 607
2018-01-12 0200 322 RL La Rochelle / Ile De Re FRA eu IN96ke 1035 643
2018-01-12 0200 363 OEM Kristianstad / Everod SWE eu JO75bx 1059 658
2018-01-12 0200 335 BER Bern / Belp SUI eu JN36sv 1189 739
2018-01-12 0200 395 FC Figeac / Livernon FRA eu JN04vq 1238 769
2018-01-12 0200 351 OV Visby SWE eu JO97er 1315 817
2018-01-12 0200 323 AB Albi / Le Sequestre FRA eu JN13av 1329 825
2018-01-12 0200 324 AS Kemi / Tornio FIN eu KP25eq 1847 1148
2018-01-12 0200 350 DF Deer Lake NL CAN na GN19ge 1000 3681 2287
2018-01-12 0159 368.5 WHI Whitegate for Hawarden ENG eu IO83qe 25 250 156
2018-01-12 0159 328.5 EGT Londonderry / Eglinton NIR eu IO65kb 278 173
2018-01-12 0159 342.5 NWI Norwich ENG eu JO02pq 5 405 252
2018-01-12 0159 347 NQY Newquay ENG eu IO70mk 50 574 357
2018-01-12 0159 406.5 BOT Bottrop DEU eu JO31mn 25 779 484
2018-01-12 0159 362 BVK Orsta-Volda / Hovden / Baatvik NOR eu JP22vf 901 560
2018-01-12 0159 409 SG Satenas / Tune SWE eu JO68ij 994 618
2018-01-12 0159 393 BD Bordeaux / Merignac FRA eu IN94rw 1178 732
2018-01-12 0159 395 B Bilbao ESP eu IN83li 1343 835
2018-01-12 0159 343 KUS Kaunas / Karmelava LTU eu KO24bx 100 1698 1055
2018-01-12 0159 391 DDP San Juan / Dorado / Luiz Munoz Marin Intl PR PTR ca FK68tl 2000 6668 4143
2018-01-12 0158 394 DND Dundee SCT eu IO86kk 25 113 70
2018-01-12 0158 402.5 LBA Leeds / Bradford ENG eu IO93eu 45 191 119
2018-01-12 0158 392 AS Angers / Avrille FRA eu IN97wn 895 556
2018-01-12 0158 393 TAT Molde / Aro / Tautra NOR eu JP32kq 975 606
2018-01-12 0158 392 KF Keflavik ISL eu HP83px 1455 904
2018-01-12 0158 389 CP Lisboa / Caparica POR eu IM58jp 1927 1197